createdAt,value
2018-11-05T00:00:50.228Z,154.37
2018-11-05T00:03:25.939Z,188.40
2018-11-05T00:06:01.505Z,162.77
2018-11-05T00:08:37.056Z,187.07
2018-11-05T00:11:12.839Z,177.70
2018-11-05T00:13:48.615Z,166.13
2018-11-05T00:16:24.337Z,188.30
2018-11-05T00:19:00.093Z,193.67
2018-11-05T00:21:35.924Z,189.87
2018-11-05T00:24:11.535Z,192.50
2018-11-05T00:26:47.191Z,217.60
2018-11-05T00:29:22.923Z,190.27
2018-11-05T00:31:58.604Z,206.03
2018-11-05T00:34:34.270Z,181.80
2018-11-05T00:37:10.177Z,197.80
2018-11-05T00:39:45.933Z,218.43
2018-11-05T00:42:27.930Z,192.40
2018-11-05T00:45:04.003Z,194.73
2018-11-05T00:47:39.773Z,207.13
2018-11-05T00:50:17.072Z,204.67
2018-11-05T00:52:54.436Z,218.13
2018-11-05T00:55:34.081Z,203.53
2018-11-05T00:58:09.607Z,175.73
2018-11-05T01:00:45.060Z,205.67
2018-11-05T01:03:20.789Z,186.07
2018-11-05T01:05:56.535Z,212.17
2018-11-05T01:08:32.054Z,192.93
2018-11-05T01:11:07.588Z,194.37
2018-11-05T01:13:43.068Z,208.33
2018-11-05T01:16:18.636Z,213.43
2018-11-05T01:18:54.337Z,237.00
2018-11-05T01:21:29.794Z,187.10
2018-11-05T01:24:05.844Z,202.87
2018-11-05T01:26:43.380Z,196.37
2018-11-05T01:29:18.904Z,190.43
2018-11-05T01:31:54.677Z,186.77
2018-11-05T01:34:30.457Z,173.13
2018-11-05T01:37:06.709Z,176.37
2018-11-05T01:39:42.580Z,169.73
2018-11-05T01:42:18.172Z,181.13
2018-11-05T01:44:53.595Z,176.50
2018-11-05T01:47:29.521Z,186.23
2018-11-05T01:50:06.238Z,174.30
2018-11-05T01:52:42.932Z,146.03
2018-11-05T01:55:28.755Z,159.27
2018-11-05T01:58:04.812Z,167.83
2018-11-05T02:00:40.446Z,153.00
2018-11-05T02:03:15.978Z,144.97
2018-11-05T02:05:51.724Z,151.80
2018-11-05T02:08:27.280Z,138.00
2018-11-05T02:11:02.821Z,134.60
2018-11-05T02:13:38.703Z,142.20
2018-11-05T02:16:14.259Z,148.30
2018-11-05T02:18:49.938Z,159.93
2018-11-05T02:21:25.436Z,172.40
2018-11-05T02:24:00.956Z,166.77
2018-11-05T02:26:36.753Z,167.80
2018-11-05T02:29:12.485Z,171.00
2018-11-05T02:31:47.932Z,173.50
2018-11-05T02:34:23.352Z,173.27
2018-11-05T02:36:58.985Z,190.37
2018-11-05T02:39:34.565Z,179.43
2018-11-05T02:42:10.262Z,176.83
2018-11-05T02:44:45.965Z,188.23
2018-11-05T02:47:22.234Z,198.17
2018-11-05T02:49:57.798Z,173.77
2018-11-05T02:52:33.421Z,179.40
2018-11-05T02:55:09.419Z,192.23
2018-11-05T02:57:49.404Z,184.70
2018-11-05T03:00:34.637Z,170.67
2018-11-05T03:03:10.433Z,174.33
2018-11-05T03:05:46.068Z,180.20
2018-11-05T03:08:21.855Z,184.77
2018-11-05T03:10:57.546Z,185.27
2018-11-05T03:13:33.054Z,179.77
2018-11-05T03:16:08.431Z,195.27
2018-11-05T03:18:44.056Z,211.90
2018-11-05T03:21:19.564Z,204.83
2018-11-05T03:23:55.395Z,218.13
2018-11-05T03:26:31.088Z,197.87
2018-11-05T03:29:07.772Z,212.80
2018-11-05T03:31:43.498Z,206.27
2018-11-05T03:34:19.037Z,214.63
2018-11-05T03:36:54.720Z,188.37
2018-11-05T03:39:30.213Z,185.80
2018-11-05T03:42:06.373Z,189.33
2018-11-05T03:44:41.933Z,181.90
2018-11-05T03:47:17.763Z,192.17
2018-11-05T03:49:53.551Z,159.17
2018-11-05T03:52:29.304Z,180.47
2018-11-05T03:55:05.064Z,169.67
2018-11-05T03:57:40.664Z,164.77
2018-11-05T04:00:33.690Z,152.87
2018-11-05T04:03:09.107Z,158.10
2018-11-05T04:05:45.248Z,147.13
2018-11-05T04:08:20.781Z,140.10
2018-11-05T04:10:56.230Z,138.57
2018-11-05T04:13:31.892Z,137.43
2018-11-05T04:16:07.461Z,143.73
2018-11-05T04:18:43.210Z,134.53
2018-11-05T04:21:18.817Z,153.50
2018-11-05T04:23:54.458Z,137.57
2018-11-05T04:26:29.845Z,147.07
2018-11-05T04:29:05.823Z,144.27
2018-11-05T04:31:41.688Z,142.23
2018-11-05T04:34:17.341Z,144.03
2018-11-05T04:36:52.741Z,130.20
2018-11-05T04:39:28.381Z,140.73
2018-11-05T04:42:03.973Z,132.37
2018-11-05T04:44:39.552Z,134.00
2018-11-05T04:47:15.590Z,133.17
2018-11-05T04:49:51.292Z,124.27
2018-11-05T04:52:26.719Z,113.50
2018-11-05T04:55:02.430Z,120.97
2018-11-05T04:57:38.699Z,146.97
2018-11-05T05:00:27.321Z,141.93
2018-11-05T05:03:03.131Z,152.07
2018-11-05T05:05:38.718Z,142.60
2018-11-05T05:08:14.808Z,167.57
2018-11-05T05:10:50.727Z,143.53
2018-11-05T05:13:26.409Z,162.57
2018-11-05T05:16:01.939Z,148.73
2018-11-05T05:18:37.501Z,152.43
2018-11-05T05:21:13.447Z,153.33
2018-11-05T05:23:49.068Z,146.23
2018-11-05T05:26:24.929Z,144.70
2018-11-05T05:29:00.365Z,129.50
2018-11-05T05:31:35.989Z,132.17
2018-11-05T05:34:11.780Z,130.97
2018-11-05T05:36:47.305Z,134.87
2018-11-05T05:39:23.500Z,142.73
2018-11-05T05:41:58.960Z,130.53
2018-11-05T05:44:34.536Z,127.03
2018-11-05T05:47:10.365Z,116.07
2018-11-05T05:49:46.110Z,112.33
2018-11-05T05:52:21.799Z,113.17
2018-11-05T05:54:57.353Z,127.67
2018-11-05T05:57:33.030Z,98.63
2018-11-05T06:00:11.387Z,89.13
2018-11-05T06:02:52.321Z,96.00
2018-11-05T06:05:35.644Z,90.87
2018-11-05T06:08:11.072Z,105.20
2018-11-05T06:10:46.537Z,125.17
2018-11-05T06:13:22.018Z,166.07
2018-11-05T06:15:57.828Z,160.47
2018-11-05T06:18:33.546Z,195.47
2018-11-05T06:21:09.200Z,193.77
2018-11-05T06:23:45.299Z,203.83
2018-11-05T06:26:20.956Z,191.17
2018-11-05T06:28:56.589Z,220.57
2018-11-05T06:31:32.057Z,233.83
2018-11-05T06:34:07.590Z,213.10
2018-11-05T06:36:43.185Z,240.40
2018-11-05T06:39:18.695Z,223.70
2018-11-05T06:41:54.377Z,243.93
2018-11-05T06:44:30.118Z,233.57
2018-11-05T06:47:06.205Z,229.83
2018-11-05T06:49:41.803Z,273.47
2018-11-05T06:52:17.196Z,266.90
2018-11-05T06:54:52.761Z,249.47
2018-11-05T06:57:28.432Z,238.57
2018-11-05T07:00:05.250Z,246.10
2018-11-05T07:02:40.951Z,247.83
2018-11-05T07:05:26.206Z,228.40
2018-11-05T07:08:02.010Z,207.27
2018-11-05T07:10:37.612Z,214.60
2018-11-05T07:13:13.511Z,224.90
2018-11-05T07:15:49.044Z,205.00
2018-11-05T07:18:24.810Z,208.67
2018-11-05T07:21:00.561Z,210.83
2018-11-05T07:23:36.206Z,195.50
2018-11-05T07:26:11.895Z,207.17
2018-11-05T07:28:47.766Z,210.73
2018-11-05T07:31:23.513Z,210.77
2018-11-05T07:34:00.043Z,201.80
2018-11-05T07:36:35.582Z,209.87
2018-11-05T07:39:12.539Z,203.83
2018-11-05T07:41:48.064Z,190.97
2018-11-05T07:44:23.752Z,187.33
2018-11-05T07:46:59.145Z,210.50
2018-11-05T07:49:35.009Z,208.00
2018-11-05T07:52:10.828Z,203.47
2018-11-05T07:54:46.313Z,221.00
2018-11-05T07:57:21.876Z,202.40
2018-11-05T07:59:57.422Z,202.37
2018-11-05T08:02:32.999Z,225.33
2018-11-05T08:05:09.132Z,221.90
2018-11-05T08:07:46.409Z,215.93
2018-11-05T08:10:31.523Z,219.63
2018-11-05T08:13:06.932Z,218.33
2018-11-05T08:15:42.373Z,195.77
2018-11-05T08:18:17.939Z,200.97
2018-11-05T08:20:53.523Z,198.67
2018-11-05T08:23:29.165Z,194.87
2018-11-05T08:26:04.879Z,201.43
2018-11-05T08:28:40.373Z,202.10
2018-11-05T08:31:15.881Z,209.90
2018-11-05T08:33:51.652Z,232.10
2018-11-05T08:36:27.462Z,222.53
2018-11-05T08:39:03.977Z,207.67
2018-11-05T08:41:40.037Z,200.33
2018-11-05T08:44:15.659Z,207.57
2018-11-05T08:46:51.163Z,207.57
2018-11-05T08:49:27.593Z,213.63
2018-11-05T08:52:03.238Z,191.77
2018-11-05T08:54:38.929Z,174.30
2018-11-05T08:57:14.338Z,205.77
2018-11-05T08:59:49.887Z,197.90
2018-11-05T09:02:25.559Z,202.87
2018-11-05T09:05:01.148Z,197.40
2018-11-05T09:07:36.836Z,225.40
2018-11-05T09:10:12.608Z,208.70
2018-11-05T09:12:53.932Z,213.47
2018-11-05T09:15:30.663Z,220.00
2018-11-05T09:18:06.577Z,230.93
2018-11-05T09:20:42.343Z,223.27
2018-11-05T09:23:18.030Z,209.43
2018-11-05T09:25:53.826Z,223.73
2018-11-05T09:28:29.279Z,242.73
2018-11-05T09:31:04.917Z,255.37
2018-11-05T09:33:40.351Z,251.73
2018-11-05T09:36:16.227Z,277.80
2018-11-05T09:38:51.943Z,248.33
2018-11-05T09:41:27.556Z,264.73
2018-11-05T09:44:03.160Z,235.57
2018-11-05T09:46:38.645Z,245.27
2018-11-05T09:49:14.208Z,216.67
2018-11-05T09:51:49.749Z,220.70
2018-11-05T09:54:25.310Z,245.93
2018-11-05T09:57:00.849Z,238.03
2018-11-05T09:59:37.058Z,235.03
2018-11-05T10:02:12.796Z,239.17
2018-11-05T10:04:48.670Z,260.70
2018-11-05T10:07:24.240Z,267.60
2018-11-05T10:09:59.765Z,276.10
2018-11-05T10:12:35.178Z,262.97
2018-11-05T10:15:12.012Z,275.80
2018-11-05T10:17:53.436Z,277.70
2018-11-05T10:20:30.853Z,256.87
2018-11-05T10:23:06.603Z,255.17
2018-11-05T10:25:42.006Z,270.07
2018-11-05T10:28:17.706Z,269.27
2018-11-05T10:30:53.320Z,244.27
2018-11-05T10:33:29.202Z,232.90
2018-11-05T10:36:05.706Z,232.27
2018-11-05T10:38:41.215Z,227.50
2018-11-05T10:41:17.352Z,232.37
2018-11-05T10:43:52.853Z,245.60
2018-11-05T10:46:28.363Z,219.17
2018-11-05T10:49:03.845Z,184.13
2018-11-05T10:51:39.483Z,197.60
2018-11-05T10:54:15.962Z,209.67
2018-11-05T10:56:51.611Z,179.73
2018-11-05T10:59:27.505Z,203.07
2018-11-05T11:02:08.479Z,203.20
2018-11-05T11:04:44.104Z,201.97
2018-11-05T11:07:19.565Z,170.17
2018-11-05T11:09:55.056Z,192.53
2018-11-05T11:12:30.668Z,186.13
2018-11-05T11:15:07.414Z,176.93
2018-11-05T11:17:43.157Z,179.13
2018-11-05T11:20:25.888Z,171.90
2018-11-05T11:23:01.416Z,168.70
2018-11-05T11:25:44.566Z,159.40
2018-11-05T11:28:20.251Z,158.73
2018-11-05T11:30:56.062Z,158.90
2018-11-05T11:33:31.880Z,167.17
2018-11-05T11:36:07.335Z,153.63
2018-11-05T11:38:43.076Z,165.57
2018-11-05T11:41:18.705Z,157.57
2018-11-05T11:43:54.511Z,164.17
2018-11-05T11:46:30.286Z,163.30
2018-11-05T11:49:06.663Z,170.23
2018-11-05T11:51:42.150Z,168.90
2018-11-05T11:54:17.820Z,163.47
2018-11-05T11:56:53.436Z,170.77
2018-11-05T11:59:29.098Z,183.70
2018-11-05T12:02:10.281Z,187.03
2018-11-05T12:04:46.064Z,197.17
2018-11-05T12:07:21.546Z,182.50
2018-11-05T12:09:56.992Z,183.47
2018-11-05T12:12:32.625Z,191.97
2018-11-05T12:15:08.642Z,182.60
2018-11-05T12:17:50.768Z,170.70
2018-11-05T12:20:30.214Z,153.30
2018-11-05T12:23:06.141Z,172.17
2018-11-05T12:25:41.606Z,187.97
2018-11-05T12:28:17.197Z,166.93
2018-11-05T12:30:52.802Z,167.60
2018-11-05T12:33:28.375Z,173.80
2018-11-05T12:36:04.142Z,162.90
2018-11-05T12:38:39.612Z,159.70
2018-11-05T12:41:15.455Z,161.30
2018-11-05T12:43:50.987Z,153.73
2018-11-05T12:46:26.494Z,139.20
2018-11-05T12:49:01.924Z,141.80
2018-11-05T12:51:37.786Z,135.40
2018-11-05T12:54:13.290Z,138.37
2018-11-05T12:56:49.053Z,168.00
2018-11-05T12:59:24.821Z,143.57
2018-11-05T13:02:00.271Z,150.60
2018-11-05T13:04:35.798Z,150.70
2018-11-05T13:07:11.466Z,137.60
2018-11-05T13:09:47.292Z,147.90
2018-11-05T13:12:23.066Z,136.53
2018-11-05T13:14:58.515Z,155.90
2018-11-05T13:17:34.718Z,123.40
2018-11-05T13:20:22.148Z,139.03
2018-11-05T13:23:03.477Z,140.20
2018-11-05T13:25:38.918Z,139.40
2018-11-05T13:28:14.414Z,122.47
2018-11-05T13:30:50.206Z,136.43
2018-11-05T13:33:25.869Z,124.73
2018-11-05T13:36:01.406Z,123.30
2018-11-05T13:38:37.421Z,119.80
2018-11-05T13:41:13.191Z,109.77
2018-11-05T13:43:48.989Z,123.70
2018-11-05T13:46:24.869Z,112.20
2018-11-05T13:49:01.157Z,111.90
2018-11-05T13:51:36.433Z,103.90
2018-11-05T13:54:12.193Z,110.20
2018-11-05T13:56:47.701Z,111.00
2018-11-05T13:59:23.212Z,114.13
2018-11-05T14:01:58.721Z,99.33
2018-11-05T14:04:34.354Z,110.33
2018-11-05T14:07:10.030Z,109.63
2018-11-05T14:09:45.714Z,100.47
2018-11-05T14:12:21.240Z,100.50
2018-11-05T14:14:56.991Z,91.40
2018-11-05T14:17:32.480Z,99.33
2018-11-05T14:20:09.579Z,90.70
2018-11-05T14:22:53.487Z,80.03
2018-11-05T14:25:35.594Z,73.03
2018-11-05T14:28:11.662Z,72.77
2018-11-05T14:30:47.199Z,77.00
2018-11-05T14:33:22.670Z,69.57
2018-11-05T14:35:58.326Z,73.33
2018-11-05T14:38:34.368Z,78.30
2018-11-05T14:41:10.285Z,73.73
2018-11-05T14:43:45.969Z,77.07
2018-11-05T14:46:21.965Z,73.37
2018-11-05T14:48:57.383Z,80.37
2018-11-05T14:51:33.339Z,72.80
2018-11-05T14:54:09.716Z,63.13
2018-11-05T14:56:45.309Z,67.63
2018-11-05T14:59:21.012Z,65.17
2018-11-05T15:02:02.100Z,71.13
2018-11-05T15:04:37.980Z,65.57
2018-11-05T15:07:13.832Z,85.83
2018-11-05T15:09:49.210Z,72.60
2018-11-05T15:12:25.030Z,67.37
2018-11-05T15:15:00.674Z,77.77
2018-11-05T15:17:36.555Z,64.10
2018-11-05T15:22:58.188Z,65.70
2018-11-05T15:25:33.765Z,63.47
2018-11-05T15:28:09.722Z,62.10
2018-11-05T15:30:45.443Z,61.13
2018-11-05T15:33:20.982Z,64.23
2018-11-05T15:35:56.753Z,62.57
2018-11-05T15:38:32.167Z,57.13
2018-11-05T15:41:08.411Z,67.80
2018-11-05T15:43:44.083Z,65.70
2018-11-05T15:46:19.682Z,62.60
2018-11-05T15:48:55.220Z,59.57
2018-11-05T15:51:31.782Z,63.40
2018-11-05T15:54:07.628Z,66.43
2018-11-05T15:56:43.472Z,74.77
2018-11-05T15:59:19.381Z,59.23
2018-11-05T16:01:54.758Z,65.50
2018-11-05T16:04:30.636Z,61.20
2018-11-05T16:07:06.424Z,60.77
2018-11-05T16:09:41.791Z,66.03
2018-11-05T16:12:17.483Z,67.63
2018-11-05T16:14:53.317Z,59.77
2018-11-05T16:17:29.471Z,64.00
2018-11-05T16:20:06.341Z,79.10
2018-11-05T16:22:41.724Z,52.57
2018-11-05T16:25:27.222Z,67.67
2018-11-05T16:28:02.677Z,57.80
2018-11-05T16:30:38.326Z,60.17
2018-11-05T16:33:14.153Z,58.60
2018-11-05T16:35:50.015Z,60.33
2018-11-05T16:38:25.828Z,55.30
2018-11-05T16:41:01.881Z,66.73
2018-11-05T16:43:37.605Z,58.57
2018-11-05T16:46:13.136Z,55.63
2018-11-05T16:48:48.880Z,60.60
2018-11-05T16:51:24.445Z,60.13
2018-11-05T16:54:00.068Z,67.63
2018-11-05T16:56:36.265Z,51.43
2018-11-05T16:59:12.097Z,57.70
2018-11-05T17:01:48.150Z,61.30
2018-11-05T17:04:23.708Z,60.50
2018-11-05T17:06:59.249Z,66.80
2018-11-05T17:09:34.902Z,75.13
2018-11-05T17:12:10.581Z,73.07
2018-11-05T17:14:45.962Z,69.50
2018-11-05T17:17:21.441Z,72.80
2018-11-05T17:19:57.097Z,82.40
2018-11-05T17:22:32.613Z,82.80
2018-11-05T17:25:09.358Z,78.47
2018-11-05T17:27:48.649Z,94.23
2018-11-05T17:30:33.494Z,95.37
2018-11-05T17:33:09.018Z,103.67
2018-11-05T17:35:44.620Z,102.00
2018-11-05T17:38:20.076Z,105.60
2018-11-05T17:40:55.693Z,102.83
2018-11-05T17:43:31.656Z,97.63
2018-11-05T17:46:07.136Z,127.50
2018-11-05T17:48:42.637Z,100.80
2018-11-05T17:51:18.186Z,117.87
2018-11-05T17:53:53.780Z,104.63
2018-11-05T17:56:30.105Z,106.10
2018-11-05T17:59:06.537Z,114.67
2018-11-05T18:01:42.220Z,118.37
2018-11-05T18:04:18.733Z,122.20
2018-11-05T18:06:54.481Z,105.20
2018-11-05T18:09:30.179Z,120.53
2018-11-05T18:12:05.909Z,119.37
2018-11-05T18:14:41.568Z,113.33
2018-11-05T18:17:17.363Z,116.63
2018-11-05T18:19:53.123Z,110.57
2018-11-05T18:22:28.497Z,115.43
2018-11-05T18:25:04.218Z,107.13
2018-11-05T18:27:39.820Z,99.60
2018-11-05T18:30:24.569Z,111.07
2018-11-05T18:33:00.033Z,109.30
2018-11-05T18:35:35.802Z,104.67
2018-11-05T18:38:11.664Z,111.77
2018-11-05T18:40:47.288Z,91.30
2018-11-05T18:43:23.964Z,97.30
2018-11-05T18:45:59.577Z,107.33
2018-11-05T18:48:35.102Z,109.07
2018-11-05T18:51:10.577Z,103.00
2018-11-05T18:53:46.176Z,108.80
2018-11-05T18:56:21.730Z,101.80
2018-11-05T18:58:57.946Z,98.23
2018-11-05T19:01:35.904Z,108.10
2018-11-05T19:04:11.597Z,115.70
2018-11-05T19:06:47.453Z,104.00
2018-11-05T19:09:23.094Z,114.97
2018-11-05T19:11:58.822Z,104.37
2018-11-05T19:14:34.391Z,107.23
2018-11-05T19:17:09.766Z,112.83
2018-11-05T19:19:45.154Z,105.33
2018-11-05T19:22:21.289Z,106.90
2018-11-05T19:24:57.775Z,106.50
2018-11-05T19:27:33.295Z,115.60
2018-11-05T19:30:14.277Z,114.40
2018-11-05T19:32:58.497Z,100.10
2018-11-05T19:35:35.264Z,91.70
2018-11-05T19:38:10.877Z,99.33
2018-11-05T19:40:46.634Z,105.93
2018-11-05T19:43:22.390Z,96.70
2018-11-05T19:45:58.102Z,106.20
2018-11-05T19:48:34.383Z,90.23
2018-11-05T19:51:12.451Z,100.87
2018-11-05T19:53:48.027Z,97.77
2018-11-05T19:56:24.672Z,100.23
2018-11-05T19:59:00.572Z,87.97
2018-11-05T20:01:37.350Z,101.20
2018-11-05T20:04:13.315Z,101.10
2018-11-05T20:06:49.609Z,107.63
2018-11-05T20:09:25.553Z,105.83
2018-11-05T20:12:01.504Z,90.33
2018-11-05T20:14:37.105Z,98.17
2018-11-05T20:17:12.521Z,104.00
2018-11-05T20:19:47.986Z,103.90
2018-11-05T20:22:23.806Z,104.93
2018-11-05T20:24:59.913Z,105.10
2018-11-05T20:27:35.753Z,91.70
2018-11-05T20:33:00.802Z,109.40
2018-11-05T20:35:41.076Z,99.63
2018-11-05T20:38:17.114Z,106.43
2018-11-05T20:40:52.838Z,96.17
2018-11-05T20:43:28.891Z,99.70
2018-11-05T20:46:05.623Z,98.73
2018-11-05T20:48:41.669Z,96.37
2018-11-05T20:51:17.362Z,93.50
2018-11-05T20:53:53.129Z,107.40
2018-11-05T20:56:28.903Z,93.13
2018-11-05T20:59:04.818Z,97.77
2018-11-05T21:01:40.426Z,115.20
2018-11-05T21:04:16.404Z,105.00
2018-11-05T21:06:53.514Z,100.80
2018-11-05T21:09:29.305Z,94.20
2018-11-05T21:12:05.863Z,96.30
2018-11-05T21:14:42.224Z,107.23
2018-11-05T21:17:17.901Z,91.20
2018-11-05T21:19:53.428Z,97.93
2018-11-05T21:22:29.085Z,99.07
2018-11-05T21:25:05.340Z,96.40
2018-11-05T21:27:41.585Z,92.27
2018-11-05T21:30:32.113Z,89.03
2018-11-05T21:33:07.650Z,96.63
2018-11-05T21:35:50.183Z,88.83
2018-11-05T21:38:25.762Z,96.10
2018-11-05T21:41:01.504Z,100.43
2018-11-05T21:43:37.313Z,104.40
2018-11-05T21:46:13.157Z,92.93
2018-11-05T21:48:48.640Z,99.73
2018-11-05T21:51:24.053Z,98.27
2018-11-05T21:54:00.157Z,101.57
2018-11-05T21:56:36.184Z,126.37
2018-11-05T21:59:11.756Z,121.07
2018-11-05T22:01:47.521Z,119.27
2018-11-05T22:04:23.110Z,108.77
2018-11-05T22:06:58.486Z,105.90
2018-11-05T22:09:34.144Z,125.07
2018-11-05T22:12:09.938Z,102.93
2018-11-05T22:14:45.373Z,110.30
2018-11-05T22:17:21.055Z,110.20
2018-11-05T22:19:56.890Z,107.07
2018-11-05T22:22:33.918Z,98.30
2018-11-05T22:25:10.751Z,99.37
2018-11-05T22:27:46.867Z,113.30
2018-11-05T22:30:22.839Z,104.53
2018-11-05T22:32:58.661Z,107.83
2018-11-05T22:35:34.398Z,104.80
2018-11-05T22:38:10.123Z,115.07
2018-11-05T22:40:46.238Z,142.97
2018-11-05T22:43:21.822Z,105.83
2018-11-05T22:45:57.935Z,117.17
2018-11-05T22:48:33.871Z,105.80
2018-11-05T22:51:09.438Z,105.80
2018-11-05T22:53:45.893Z,126.43
2018-11-05T22:56:22.141Z,98.60
2018-11-05T22:58:57.696Z,108.83
2018-11-05T23:01:38.612Z,106.37
2018-11-05T23:04:14.381Z,114.27
2018-11-05T23:06:51.271Z,111.30
2018-11-05T23:09:26.835Z,109.63
2018-11-05T23:12:02.401Z,114.60
2018-11-05T23:14:38.044Z,119.17
2018-11-05T23:17:13.825Z,123.83
2018-11-05T23:19:49.317Z,114.13
2018-11-05T23:22:24.940Z,118.80
2018-11-05T23:25:00.524Z,113.67
2018-11-05T23:27:40.117Z,128.20
2018-11-05T23:30:31.887Z,123.47
2018-11-05T23:33:07.272Z,119.97
2018-11-05T23:35:42.749Z,115.60
2018-11-05T23:38:18.317Z,118.10
2018-11-05T23:40:53.881Z,115.60
2018-11-05T23:43:29.328Z,122.87
2018-11-05T23:46:04.898Z,118.30
2018-11-05T23:48:40.282Z,130.90
2018-11-05T23:51:15.884Z,113.33
2018-11-05T23:53:51.676Z,108.03
2018-11-05T23:56:27.420Z,122.30
2018-11-05T23:59:03.261Z,117.17
